Council Bluffs, IA

6:07 PM CDT on April 29, 2017 (GMT -0500)
Eagle Ridge Estates | | Change Station

Elev 974 ft 41.23 °N, 95.88 °W | Updated 14 minutes ago

Light Rain
Light Rain
43.3 °F
Feels Like 41 °F
N
3.7
Wind Variable Wind from NNE

Today
High -- | Low -- °F
--% Chance of Precip.
Yesterday
High -- | Low -- °F
Precip. -- in
Pressure 30.00 in
Visibility 5.0 miles
Clouds Few 2100 ft
Mostly Cloudy 2900 ft
Overcast 4800 ft
Windchill 41 °F
Dew Point 40 °F
Humidity 89%
Rainfall 0.02 in
Snow Depth Not available.
6:23 AM 8:19 PM
Waxing Crescent, 17% visible
METAR KOMA 292252Z 03015G28KT 5SM -RA FEW021 BKN029 OVC048 07/03 A2999 RMK AO2 PK WND 03028/2247 RAB2159 SLP158 P0000 T00720033
Pressure 30.00 in
Visibility 5.0 miles
Clouds Few 2100 ft
Mostly Cloudy 2900 ft
Overcast 4800 ft
Windchill 41 °F
Dew Point 40 °F
Humidity 89%
Rainfall 0.02 in
Snow Depth Not available.
6:23 AM 8:19 PM
Waxing Crescent, 17% visible
METAR KOMA 292252Z 03015G28KT 5SM -RA FEW021 BKN029 OVC048 07/03 A2999 RMK AO2 PK WND 03028/2247 RAB2159 SLP158 P0000 T00720033

Get Severe Weather Alerts

Thanks for signing up!

Be on the lookout for a verification email in your inbox.

You'll start receiving the daily forecast at 8 AM.

×

10-Day Weather Forecast

Almanac

Astronomy

Apr. 29, 2017 Rise Set
Actual Time
Civil Twilight
Nautical Twilight
Astronomical Twilight
Moon
Length of Visible Light
Length of Day
Tomorrow will be .
, % of the Moon is Illuminated

Today's Extremes

State Highs State Lows

Community

WunderPhotos

WunderBlog® & News

Nearby

Air Quality

  Air Quality AQ Index Pollutant
Not available.

Snow Depth

Station Depth Elevation

Earthquake Activity

City Distance Mag. Time & Date
Minimum magnitude displayed is 2.5.

Coastal Water Temperatures

Place Temperature

Stations

Nearby Weather Stations

Station Location Temp. Windchill Dew Point Humidity Wind Precip. Elev Updated Type
                   

Watches & Warnings

There are currently no watches in effect.